createdAt,value
2019-05-11T00:01:27.630Z,47.97
2019-05-11T00:03:57.087Z,50.33
2019-05-11T00:06:26.691Z,49.63
2019-05-11T00:08:59.529Z,43.17
2019-05-11T00:11:28.950Z,39.67
2019-05-11T00:13:58.517Z,52.27
2019-05-11T00:16:28.047Z,51.73
2019-05-11T00:18:57.683Z,51.17
2019-05-11T00:21:27.118Z,47.67
2019-05-11T00:23:56.741Z,52.30
2019-05-11T00:26:26.594Z,49.20
2019-05-11T00:28:56.157Z,44.30
2019-05-11T00:31:26.890Z,48.40
2019-05-11T00:33:56.400Z,43.27
2019-05-11T00:36:25.871Z,58.97
2019-05-11T00:38:57.704Z,48.50
2019-05-11T00:41:27.314Z,46.27
2019-05-11T00:43:56.924Z,52.07
2019-05-11T00:46:26.316Z,45.23
2019-05-11T00:48:55.679Z,49.27
2019-05-11T00:51:25.250Z,55.57
2019-05-11T00:53:54.811Z,77.07
2019-05-11T00:56:24.289Z,52.50
2019-05-11T00:58:53.864Z,45.73
2019-05-11T01:01:23.791Z,62.33
2019-05-11T01:03:53.195Z,52.87
2019-05-11T01:06:23.087Z,39.57
2019-05-11T01:08:52.623Z,47.03
2019-05-11T01:11:22.101Z,54.07
2019-05-11T01:13:51.554Z,50.43
2019-05-11T01:16:21.388Z,54.70
2019-05-11T01:18:50.847Z,60.27
2019-05-11T01:21:20.263Z,48.73
2019-05-11T01:23:49.811Z,60.23
2019-05-11T01:26:19.217Z,63.03
2019-05-11T01:28:48.735Z,48.50
2019-05-11T01:31:18.251Z,70.50
2019-05-11T01:33:47.725Z,55.93
2019-05-11T01:36:17.109Z,64.80
2019-05-11T01:38:46.575Z,45.90
2019-05-11T01:41:16.131Z,58.63
2019-05-11T01:43:45.578Z,50.83
2019-05-11T01:46:15.069Z,56.07
2019-05-11T01:48:44.819Z,52.93
2019-05-11T01:51:14.240Z,61.53
2019-05-11T01:53:43.670Z,57.47
2019-05-11T01:56:13.084Z,58.73
2019-05-11T01:58:42.596Z,49.83
2019-05-11T02:01:12.130Z,53.90
2019-05-11T02:03:41.510Z,54.70
2019-05-11T02:06:10.847Z,51.07
2019-05-11T02:08:40.326Z,52.80
2019-05-11T02:11:16.060Z,77.67
2019-05-11T02:13:40.876Z,53.57
2019-05-11T02:16:10.370Z,72.10
2019-05-11T02:18:39.715Z,60.50
2019-05-11T02:21:09.095Z,51.67
2019-05-11T02:23:38.489Z,48.97
2019-05-11T02:26:07.968Z,55.87
2019-05-11T02:28:37.428Z,68.40
2019-05-11T02:31:06.898Z,49.00
2019-05-11T02:33:36.323Z,56.90
2019-05-11T02:36:05.752Z,60.67
2019-05-11T02:38:35.183Z,51.67
2019-05-11T02:41:04.659Z,51.33
2019-05-11T02:43:33.994Z,61.50
2019-05-11T02:46:03.351Z,46.70
2019-05-11T02:48:33.040Z,50.83
2019-05-11T02:51:02.637Z,57.57
2019-05-11T02:53:33.621Z,56.67
2019-05-11T02:56:03.157Z,46.33
2019-05-11T02:58:32.668Z,58.80
2019-05-11T03:01:02.021Z,71.03
2019-05-11T03:03:31.493Z,49.37
2019-05-11T03:06:00.852Z,55.57
2019-05-11T03:08:30.511Z,56.37
2019-05-11T03:10:59.912Z,42.83
2019-05-11T03:13:29.347Z,35.23
2019-05-11T03:15:58.935Z,55.73
2019-05-11T03:18:28.500Z,39.27
2019-05-11T03:20:58.094Z,43.93
2019-05-11T03:23:27.583Z,45.13
2019-05-11T03:25:57.092Z,44.53
2019-05-11T03:28:26.639Z,44.60
2019-05-11T03:30:56.199Z,54.67
2019-05-11T03:33:25.622Z,37.87
2019-05-11T03:35:54.997Z,36.17
2019-05-11T03:38:25.413Z,47.33
2019-05-11T03:40:54.750Z,43.90
2019-05-11T03:43:24.267Z,63.47
2019-05-11T03:45:53.709Z,37.73
2019-05-11T03:48:23.285Z,26.47
2019-05-11T03:50:52.734Z,40.33
2019-05-11T03:53:22.147Z,37.90
2019-05-11T03:55:51.627Z,40.37
2019-05-11T03:58:25.511Z,32.90
2019-05-11T04:00:52.292Z,42.07
2019-05-11T04:03:21.779Z,41.30
2019-05-11T04:05:51.253Z,35.53
2019-05-11T04:08:20.573Z,41.10
2019-05-11T04:10:50.043Z,30.10
2019-05-11T04:13:19.419Z,32.57
2019-05-11T04:15:48.819Z,30.80
2019-05-11T04:18:18.300Z,43.70
2019-05-11T04:20:47.788Z,32.20
2019-05-11T04:23:17.168Z,29.03
2019-05-11T04:25:46.689Z,32.67
2019-05-11T04:28:16.154Z,35.23
2019-05-11T04:30:45.557Z,29.10
2019-05-11T04:33:14.948Z,34.90
2019-05-11T04:35:44.340Z,34.63
2019-05-11T04:38:13.717Z,35.20
2019-05-11T04:40:43.252Z,22.63
2019-05-11T04:43:12.622Z,33.20
2019-05-11T04:45:42.049Z,24.10
2019-05-11T04:48:11.526Z,24.17
2019-05-11T04:50:40.966Z,27.70
2019-05-11T04:53:10.598Z,33.80
2019-05-11T04:55:40.018Z,31.87
2019-05-11T04:58:09.418Z,40.37
2019-05-11T05:00:38.901Z,27.40
2019-05-11T05:03:08.340Z,36.20
2019-05-11T05:05:37.864Z,22.17
2019-05-11T05:08:09.915Z,40.13
2019-05-11T05:10:38.598Z,33.73
2019-05-11T05:13:10.728Z,23.20
2019-05-11T05:15:39.274Z,29.60
2019-05-11T05:18:08.719Z,22.40
2019-05-11T05:20:38.323Z,32.37
2019-05-11T05:23:07.717Z,20.50
2019-05-11T05:25:37.172Z,22.23
2019-05-11T05:28:06.550Z,48.77
2019-05-11T05:30:35.953Z,32.23
2019-05-11T05:33:05.745Z,28.60
2019-05-11T05:35:35.396Z,23.03
2019-05-11T05:38:05.099Z,38.20
2019-05-11T05:40:34.658Z,20.70
2019-05-11T05:43:04.224Z,49.80
2019-05-11T05:45:33.739Z,14.70
2019-05-11T05:48:03.424Z,27.43
2019-05-11T05:50:32.914Z,29.17
2019-05-11T05:53:02.335Z,18.97
2019-05-11T05:55:31.850Z,43.13
2019-05-11T05:58:01.390Z,28.03
2019-05-11T06:00:30.950Z,23.97
2019-05-11T06:03:00.404Z,22.70
2019-05-11T06:05:30.853Z,18.97
2019-05-11T06:08:00.566Z,44.10
2019-05-11T06:10:29.978Z,14.90
2019-05-11T06:12:59.438Z,18.67
2019-05-11T06:15:28.998Z,21.83
2019-05-11T06:18:00.552Z,12.50
2019-05-11T06:20:29.519Z,18.17
2019-05-11T06:22:59.055Z,26.20
2019-05-11T06:25:28.635Z,11.93
2019-05-11T06:27:58.141Z,29.03
2019-05-11T06:30:27.670Z,16.40
2019-05-11T06:32:57.091Z,22.50
2019-05-11T06:35:26.561Z,11.33
2019-05-11T06:37:56.055Z,23.27
2019-05-11T06:40:28.557Z,15.50
2019-05-11T06:42:56.624Z,25.07
2019-05-11T06:45:26.659Z,10.90
2019-05-11T06:47:56.099Z,27.87
2019-05-11T06:50:25.579Z,15.47
2019-05-11T06:52:55.001Z,24.83
2019-05-11T06:55:24.478Z,22.40
2019-05-11T06:57:54.149Z,13.23
2019-05-11T07:00:23.653Z,26.33
2019-05-11T07:02:53.117Z,30.33
2019-05-11T07:05:22.626Z,22.00
2019-05-11T07:07:52.045Z,15.63
2019-05-11T07:10:21.410Z,18.27
2019-05-11T07:12:50.785Z,35.70
2019-05-11T07:15:20.199Z,17.00
2019-05-11T07:17:49.637Z,17.23
2019-05-11T07:20:19.098Z,15.10
2019-05-11T07:22:48.932Z,18.77
2019-05-11T07:25:18.396Z,18.10
2019-05-11T07:27:47.825Z,22.93
2019-05-11T07:30:17.395Z,20.20
2019-05-11T07:32:48.185Z,17.97
2019-05-11T07:35:18.832Z,17.10
2019-05-11T07:37:48.401Z,23.60
2019-05-11T07:40:18.730Z,16.40
2019-05-11T07:42:48.751Z,35.57
2019-05-11T07:45:18.339Z,24.60
2019-05-11T07:47:48.542Z,16.70
2019-05-11T07:50:18.607Z,14.00
2019-05-11T07:52:48.443Z,18.30
2019-05-11T07:55:19.001Z,20.40
2019-05-11T07:57:48.753Z,18.73
2019-05-11T08:00:18.757Z,23.53
2019-05-11T08:02:48.384Z,21.00
2019-05-11T08:05:18.590Z,19.57
2019-05-11T08:07:48.409Z,22.87
2019-05-11T08:10:18.696Z,17.23
2019-05-11T08:12:48.400Z,12.10
2019-05-11T08:15:18.543Z,16.40
2019-05-11T08:17:49.009Z,21.23
2019-05-11T08:20:19.525Z,42.90
2019-05-11T08:22:49.027Z,12.17
2019-05-11T08:25:18.503Z,18.90
2019-05-11T08:27:48.623Z,17.60
2019-05-11T08:30:18.893Z,13.20
2019-05-11T08:32:49.284Z,11.77
2019-05-11T08:35:19.290Z,14.00
2019-05-11T08:37:48.751Z,15.07
2019-05-11T08:40:19.918Z,18.37
2019-05-11T08:42:49.379Z,15.53
2019-05-11T08:45:24.250Z,12.70
2019-05-11T08:47:50.277Z,20.13
2019-05-11T08:50:20.969Z,19.33
2019-05-11T08:52:50.388Z,18.20
2019-05-11T08:55:19.781Z,15.63
2019-05-11T08:57:49.250Z,9.93
2019-05-11T09:00:20.159Z,14.27
2019-05-11T09:02:50.693Z,15.13
2019-05-11T09:05:20.780Z,16.43
2019-05-11T09:07:50.252Z,6.47
2019-05-11T09:10:19.675Z,24.53
2019-05-11T09:12:49.299Z,14.03
2019-05-11T09:15:33.468Z,7.47
2019-05-11T09:17:53.185Z,9.87
2019-05-11T09:20:22.614Z,16.30
2019-05-11T09:22:52.204Z,12.97
2019-05-11T09:25:21.592Z,9.70
2019-05-11T09:27:51.083Z,8.87
2019-05-11T09:30:20.779Z,10.40
2019-05-11T09:32:50.237Z,7.50
2019-05-11T09:35:19.730Z,17.30
2019-05-11T09:37:49.153Z,18.50
2019-05-11T09:40:18.788Z,7.83
2019-05-11T09:42:48.300Z,7.47
2019-05-11T09:45:18.692Z,10.13
2019-05-11T09:47:50.807Z,7.60
2019-05-11T09:50:20.465Z,10.40
2019-05-11T09:52:49.824Z,6.50
2019-05-11T09:55:19.444Z,14.53
2019-05-11T09:57:49.042Z,7.80
2019-05-11T10:00:18.778Z,5.27
2019-05-11T10:02:48.851Z,13.27
2019-05-11T10:05:19.113Z,18.47
2019-05-11T10:07:48.719Z,9.57
2019-05-11T10:10:18.850Z,9.27
2019-05-11T10:12:52.319Z,7.47
2019-05-11T10:15:20.495Z,6.67
2019-05-11T10:17:49.973Z,15.73
2019-05-11T10:20:19.368Z,7.40
2019-05-11T10:22:48.935Z,5.90
2019-05-11T10:25:18.521Z,9.63
2019-05-11T10:27:48.859Z,9.07
2019-05-11T10:30:19.488Z,16.10
2019-05-11T10:32:49.223Z,22.90
2019-05-11T10:35:18.755Z,19.10
2019-05-11T10:37:50.201Z,9.07
2019-05-11T10:40:19.760Z,34.87
2019-05-11T10:42:49.184Z,6.20
2019-05-11T10:45:18.734Z,20.93
2019-05-11T10:47:48.966Z,7.77
2019-05-11T10:50:19.021Z,6.83
2019-05-11T10:52:48.715Z,7.47
2019-05-11T10:55:19.296Z,8.30
2019-05-11T10:57:49.230Z,8.13
2019-05-11T11:00:19.111Z,8.20
2019-05-11T11:02:48.606Z,8.37
2019-05-11T11:05:18.909Z,7.27
2019-05-11T11:07:48.661Z,6.10
2019-05-11T11:10:18.446Z,9.40
2019-05-11T11:12:48.960Z,6.47
2019-05-11T11:15:18.879Z,8.10
2019-05-11T11:17:48.710Z,7.30
2019-05-11T11:20:18.956Z,5.40
2019-05-11T11:22:48.601Z,7.13
2019-05-11T11:25:18.237Z,8.77
2019-05-11T11:27:48.733Z,12.83
2019-05-11T11:30:18.915Z,5.50
2019-05-11T11:32:48.535Z,10.73
2019-05-11T11:35:18.711Z,18.77
2019-05-11T11:37:48.549Z,9.23
2019-05-11T11:40:18.377Z,6.50
2019-05-11T11:42:48.025Z,9.17
2019-05-11T11:45:18.419Z,12.97
2019-05-11T11:47:49.288Z,8.57
2019-05-11T11:50:19.032Z,5.37
2019-05-11T11:52:48.593Z,12.97
2019-05-11T11:55:18.700Z,15.53
2019-05-11T11:57:50.317Z,5.63
2019-05-11T12:00:20.330Z,15.40
2019-05-11T12:02:49.827Z,15.10
2019-05-11T12:05:19.330Z,7.80
2019-05-11T12:07:49.180Z,15.10
2019-05-11T12:10:18.881Z,15.20
2019-05-11T12:12:48.354Z,8.53
2019-05-11T12:15:17.979Z,5.60
2019-05-11T12:17:48.339Z,8.67
2019-05-11T12:20:18.309Z,14.13
2019-05-11T12:22:47.869Z,9.10
2019-05-11T12:25:18.556Z,10.50
2019-05-11T12:27:49.166Z,6.83
2019-05-11T12:30:18.863Z,11.53
2019-05-11T12:32:50.040Z,17.70
2019-05-11T12:35:19.522Z,8.13
2019-05-11T12:37:48.976Z,8.53
2019-05-11T12:40:18.554Z,11.20
2019-05-11T12:42:49.041Z,9.10
2019-05-11T12:45:18.788Z,17.60
2019-05-11T12:47:48.674Z,13.60
2019-05-11T12:50:20.152Z,7.33
2019-05-11T12:52:49.683Z,13.30
2019-05-11T12:55:19.501Z,12.00
2019-05-11T12:57:48.922Z,8.43
2019-05-11T13:00:18.428Z,8.37
2019-05-11T13:02:48.541Z,11.77
2019-05-11T13:05:18.430Z,8.77
2019-05-11T13:07:49.856Z,15.80
2019-05-11T13:10:19.289Z,14.27
2019-05-11T13:12:49.431Z,21.73
2019-05-11T13:15:19.679Z,21.93
2019-05-11T13:17:49.421Z,16.23
2019-05-11T13:20:18.820Z,11.00
2019-05-11T13:22:49.043Z,21.70
2019-05-11T13:25:18.567Z,9.70
2019-05-11T13:27:49.255Z,15.73
2019-05-11T13:30:19.111Z,11.23
2019-05-11T13:32:51.666Z,11.77
2019-05-11T13:35:21.183Z,14.00
2019-05-11T13:37:50.663Z,7.03
2019-05-11T13:40:20.279Z,14.33
2019-05-11T13:42:49.840Z,20.23
2019-05-11T13:45:19.464Z,13.40
2019-05-11T13:47:54.754Z,13.40
2019-05-11T13:50:20.205Z,14.50
2019-05-11T13:52:49.596Z,7.30
2019-05-11T13:55:19.149Z,8.60
2019-05-11T13:57:48.808Z,9.10
2019-05-11T14:00:18.416Z,6.80
2019-05-11T14:02:48.669Z,7.77
2019-05-11T14:05:18.378Z,8.23
2019-05-11T14:07:48.339Z,7.20
2019-05-11T14:10:18.369Z,18.83
2019-05-11T14:12:48.137Z,12.00
2019-05-11T14:15:19.042Z,6.27
2019-05-11T14:18:04.375Z,6.77
2019-05-11T14:20:20.810Z,8.60
2019-05-11T14:22:50.421Z,6.80
2019-05-11T14:25:19.980Z,6.60
2019-05-11T14:27:49.417Z,6.37
2019-05-11T14:30:19.305Z,6.90
2019-05-11T14:32:48.934Z,8.03
2019-05-11T14:35:18.953Z,8.90
2019-05-11T14:37:48.848Z,11.37
2019-05-11T14:40:18.605Z,14.13
2019-05-11T14:42:48.999Z,11.80
2019-05-11T14:45:19.020Z,5.50
2019-05-11T14:47:48.978Z,10.03
2019-05-11T14:50:18.938Z,6.00
2019-05-11T14:52:49.154Z,9.03
2019-05-11T14:55:19.696Z,9.60
2019-05-11T14:57:49.181Z,12.60
2019-05-11T15:00:18.806Z,6.80
2019-05-11T15:02:49.777Z,5.07
2019-05-11T15:05:20.850Z,7.73
2019-05-11T15:07:52.654Z,6.67
2019-05-11T15:10:22.150Z,4.70
2019-05-11T15:12:51.551Z,15.00
2019-05-11T15:15:21.090Z,4.00
2019-05-11T15:17:50.606Z,3.43
2019-05-11T15:20:21.685Z,3.00
2019-05-11T15:22:51.181Z,3.13
2019-05-11T15:25:20.624Z,3.90
2019-05-11T15:27:50.000Z,4.10
2019-05-11T15:30:19.958Z,4.00
2019-05-11T15:32:49.459Z,8.63
2019-05-11T15:35:19.200Z,4.90
2019-05-11T15:37:48.932Z,8.63
2019-05-11T15:40:19.562Z,5.23
2019-05-11T15:42:49.024Z,7.73
2019-05-11T15:45:20.646Z,4.90
2019-05-11T15:47:50.196Z,7.33
2019-05-11T15:50:19.918Z,4.07
2019-05-11T15:52:49.383Z,3.50
2019-05-11T15:55:19.959Z,3.93
2019-05-11T15:57:49.331Z,4.40
2019-05-11T16:00:19.270Z,4.23
2019-05-11T16:02:49.220Z,5.40
2019-05-11T16:05:19.758Z,8.60
2019-05-11T16:07:49.595Z,3.43
2019-05-11T16:10:19.425Z,26.27
2019-05-11T16:12:49.170Z,3.80
2019-05-11T16:15:19.744Z,4.50
2019-05-11T16:17:49.777Z,8.27
2019-05-11T16:20:19.523Z,10.57
2019-05-11T16:22:49.018Z,3.37
2019-05-11T16:25:20.152Z,3.00
2019-05-11T16:27:49.739Z,3.30
2019-05-11T16:30:21.507Z,3.47
2019-05-11T16:32:51.471Z,3.30
2019-05-11T16:35:21.013Z,3.43
2019-05-11T16:37:50.507Z,3.43
2019-05-11T16:40:21.131Z,18.87
2019-05-11T16:42:50.698Z,7.23
2019-05-11T16:45:23.761Z,5.60
2019-05-11T16:47:52.225Z,10.13
2019-05-11T16:50:21.624Z,2.67
2019-05-11T16:52:51.050Z,3.73
2019-05-11T16:55:20.441Z,13.03
2019-05-11T16:57:49.827Z,2.87
2019-05-11T17:00:19.322Z,4.90
2019-05-11T17:02:49.338Z,3.53
2019-05-11T17:05:26.445Z,2.57
2019-05-11T17:07:50.121Z,2.97
2019-05-11T17:10:19.603Z,3.90
2019-05-11T17:12:49.220Z,2.53
2019-05-11T17:15:19.226Z,3.77
2019-05-11T17:17:49.200Z,3.50
2019-05-11T17:20:19.501Z,21.20
2019-05-11T17:22:49.073Z,2.47
2019-05-11T17:25:19.549Z,2.83
2019-05-11T17:27:49.387Z,6.30
2019-05-11T17:30:19.893Z,4.53
2019-05-11T17:32:50.124Z,2.97
2019-05-11T17:35:19.973Z,6.23
2019-05-11T17:37:49.407Z,11.93
2019-05-11T17:40:23.091Z,10.13
2019-05-11T17:42:53.483Z,6.53
2019-05-11T17:45:21.488Z,3.67
2019-05-11T17:47:50.878Z,12.10
2019-05-11T17:50:20.384Z,3.43
2019-05-11T17:52:49.899Z,5.37
2019-05-11T17:55:19.469Z,4.00
2019-05-11T17:57:50.418Z,3.33
2019-05-11T18:00:21.885Z,6.53
2019-05-11T18:02:51.409Z,2.97
2019-05-11T18:05:20.808Z,4.77
2019-05-11T18:07:50.261Z,2.23
2019-05-11T18:10:19.764Z,4.50
2019-05-11T18:12:49.904Z,2.90
2019-05-11T18:15:19.349Z,3.10
2019-05-11T18:17:49.045Z,3.20
2019-05-11T18:20:22.023Z,15.23
2019-05-11T18:22:49.902Z,5.57
2019-05-11T18:25:19.358Z,7.43
2019-05-11T18:27:48.771Z,3.13
2019-05-11T18:30:18.193Z,5.00
2019-05-11T18:32:49.135Z,10.33
2019-05-11T18:35:19.691Z,5.83
2019-05-11T18:37:49.327Z,6.77
2019-05-11T18:40:19.045Z,2.77
2019-05-11T18:42:49.236Z,4.40
2019-05-11T18:45:19.307Z,1.93
2019-05-11T18:47:49.313Z,2.13
2019-05-11T18:50:29.830Z,2.63
2019-05-11T18:52:50.646Z,4.00
2019-05-11T18:55:20.130Z,4.50
2019-05-11T18:57:49.559Z,2.70
2019-05-11T19:00:19.267Z,4.40
2019-05-11T19:02:49.666Z,2.97
2019-05-11T19:05:19.393Z,7.27
2019-05-11T19:07:48.972Z,2.50
2019-05-11T19:10:18.365Z,12.67
2019-05-11T19:12:48.798Z,5.87
2019-05-11T19:15:19.251Z,8.80
2019-05-11T19:17:49.482Z,8.80
2019-05-11T19:20:19.209Z,6.10
2019-05-11T19:22:48.711Z,7.60
2019-05-11T19:25:18.537Z,3.17
2019-05-11T19:27:50.580Z,9.73
2019-05-11T19:30:19.872Z,3.20
2019-05-11T19:32:49.388Z,2.63
2019-05-11T19:35:21.155Z,2.67
2019-05-11T19:37:50.052Z,9.73
2019-05-11T19:40:19.443Z,2.50
2019-05-11T19:42:55.317Z,6.83
2019-05-11T19:45:24.894Z,3.67
2019-05-11T19:47:54.412Z,9.80
2019-05-11T19:50:23.769Z,14.97
2019-05-11T19:52:53.254Z,6.17
2019-05-11T19:55:22.710Z,3.13
2019-05-11T19:57:52.234Z,2.60
2019-05-11T20:00:21.669Z,8.03
2019-05-11T20:02:51.143Z,3.13
2019-05-11T20:05:20.548Z,5.63
2019-05-11T20:07:49.903Z,3.30
2019-05-11T20:10:19.400Z,7.40
2019-05-11T20:12:49.148Z,4.33
2019-05-11T20:15:19.183Z,3.90
2019-05-11T20:17:49.198Z,10.53
2019-05-11T20:20:18.941Z,2.83
2019-05-11T20:22:49.109Z,10.13
2019-05-11T20:25:21.671Z,4.40
2019-05-11T20:27:51.073Z,6.43
2019-05-11T20:30:20.542Z,13.33
2019-05-11T20:32:50.090Z,5.73
2019-05-11T20:35:20.548Z,18.47
2019-05-11T20:37:49.982Z,4.00
2019-05-11T20:40:19.444Z,4.60
2019-05-11T20:42:48.984Z,4.70
2019-05-11T20:45:18.995Z,7.17
2019-05-11T20:47:49.167Z,3.07
2019-05-11T20:50:18.827Z,7.43
2019-05-11T20:52:49.107Z,3.63
2019-05-11T20:55:18.666Z,5.87
2019-05-11T20:57:48.718Z,2.53
2019-05-11T21:00:19.666Z,6.53
2019-05-11T21:02:49.317Z,5.17
2019-05-11T21:05:18.953Z,3.57
2019-05-11T21:07:48.390Z,6.93
2019-05-11T21:10:17.950Z,5.90
2019-05-11T21:12:47.412Z,4.90
2019-05-11T21:15:18.042Z,5.53
2019-05-11T21:17:48.152Z,5.17
2019-05-11T21:20:18.691Z,9.27
2019-05-11T21:22:48.829Z,7.80
2019-05-11T21:25:18.859Z,9.30
2019-05-11T21:27:48.857Z,7.07
2019-05-11T21:30:18.754Z,11.63
2019-05-11T21:32:48.315Z,3.13
2019-05-11T21:35:19.296Z,10.57
2019-05-11T21:37:48.990Z,4.40
2019-05-11T21:40:18.419Z,4.67
2019-05-11T21:42:47.876Z,3.60
2019-05-11T21:45:18.281Z,3.73
2019-05-11T21:47:49.007Z,4.50
2019-05-11T21:50:19.253Z,10.37
2019-05-11T21:52:48.796Z,3.93
2019-05-11T21:55:18.263Z,3.97
2019-05-11T21:57:49.832Z,6.33
2019-05-11T22:00:19.117Z,10.20
2019-05-11T22:02:48.754Z,3.23
2019-05-11T22:05:20.887Z,4.07
2019-05-11T22:07:50.248Z,6.57
2019-05-11T22:10:19.882Z,17.27
2019-05-11T22:12:49.289Z,7.53
2019-05-11T22:15:18.860Z,6.27
2019-05-11T22:17:48.533Z,5.17
2019-05-11T22:20:19.292Z,5.33
2019-05-11T22:22:48.747Z,8.23
2019-05-11T22:25:18.547Z,6.53
2019-05-11T22:27:48.829Z,5.87
2019-05-11T22:30:18.853Z,10.13
2019-05-11T22:32:48.392Z,10.50
2019-05-11T22:35:18.418Z,5.57
2019-05-11T22:37:48.949Z,11.27
2019-05-11T22:40:18.992Z,3.67
2019-05-11T22:42:48.460Z,16.80
2019-05-11T22:45:18.817Z,4.20
2019-05-11T22:47:48.391Z,19.20
2019-05-11T22:50:18.592Z,4.27
2019-05-11T22:52:48.589Z,4.40
2019-05-11T22:55:18.913Z,4.93
2019-05-11T22:57:48.932Z,13.83
2019-05-11T23:00:29.069Z,4.87
2019-05-11T23:02:58.803Z,5.97
2019-05-11T23:05:29.968Z,7.80
2019-05-11T23:07:59.507Z,5.33
2019-05-11T23:10:29.295Z,12.37
2019-05-11T23:12:58.866Z,5.03
2019-05-11T23:15:28.395Z,8.50
2019-05-11T23:17:59.948Z,5.80
2019-05-11T23:20:30.207Z,6.07
2019-05-11T23:23:01.663Z,8.97
2019-05-11T23:25:30.928Z,11.13
2019-05-11T23:28:00.450Z,15.23
2019-05-11T23:30:29.932Z,8.20
2019-05-11T23:32:59.403Z,6.40
2019-05-11T23:35:29.450Z,4.07
2019-05-11T23:37:58.997Z,16.13
2019-05-11T23:40:28.612Z,31.00
2019-05-11T23:42:58.133Z,4.20
2019-05-11T23:45:28.155Z,6.83
2019-05-11T23:47:58.847Z,4.30
2019-05-11T23:50:28.495Z,8.80
2019-05-11T23:53:06.428Z,5.90
2019-05-11T23:55:29.252Z,5.10
2019-05-11T23:57:58.709Z,3.53
